Time;durP1;ratioP1;P1;durP2;ratioP2;P2;SDS_P1;SDS_P2;PMS_P1;PMS_P2;Temp;Humidity;BMP_temperature;BMP_pressure;BME280_temperature;BME280_humidity;BME280_pressure;Samples;Min_cycle;Max_cycle;Signal;HPM_P1;HPM_P2
2022/03/18 00:02:26;;;;;;;24.77;20.17;;;7.90;99.90;;;;;;5110268;28;20031;-78
2022/03/18 00:04:53;;;;;;;27.95;22.35;;;7.90;99.90;;;;;;5108581;28;20036;-78
2022/03/18 00:07:20;;;;;;;26.40;21.52;;;7.90;99.90;;;;;;5096942;28;20020;-79
2022/03/18 00:09:47;;;;;;;25.60;20.27;;;7.90;99.90;;;;;;5110495;28;20026;-81
2022/03/18 00:12:13;;;;;;;22.27;18.90;;;8.00;99.90;;;;;;5096163;28;20032;-76
2022/03/18 00:14:39;;;;;;;23.63;18.80;;;7.90;99.90;;;;;;5108883;28;20023;-77
2022/03/18 00:17:10;;;;;;;25.10;20.85;;;8.00;99.90;;;;;;5086458;28;20047;-76
2022/03/18 00:19:38;;;;;;;28.38;20.55;;;7.90;99.90;;;;;;5091553;28;20024;-77
2022/03/18 00:22:04;;;;;;;22.33;19.05;;;8.00;99.90;;;;;;5119653;28;20026;-80
2022/03/18 00:24:33;;;;;;;24.23;19.85;;;8.00;99.90;;;;;;5114443;28;20012;-79
2022/03/18 00:27:06;;;;;;;23.73;18.17;;;8.00;99.90;;;;;;5097156;28;20073;-80
2022/03/18 00:29:33;;;;;;;21.52;18.80;;;8.10;99.90;;;;;;5097284;28;20027;-80
2022/03/18 00:31:59;;;;;;;23.20;18.70;;;8.10;99.90;;;;;;5117194;28;20023;-79
2022/03/18 00:34:25;;;;;;;19.45;16.55;;;8.10;99.90;;;;;;5095140;28;20483;-75
2022/03/18 00:36:52;;;;;;;23.92;18.83;;;7.90;99.90;;;;;;5099784;28;20046;-75
2022/03/18 00:39:18;;;;;;;20.63;17.60;;;8.00;99.90;;;;;;5115571;28;20049;-75
2022/03/18 00:41:43;;;;;;;21.65;18.85;;;8.00;99.90;;;;;;5112796;28;20610;-76
2022/03/18 00:44:10;;;;;;;20.52;17.10;;;7.90;99.90;;;;;;5096470;28;20145;-77
2022/03/18 00:46:36;;;;;;;22.17;18.33;;;7.90;99.90;;;;;;5116772;28;20085;-77
2022/03/18 00:52:05;;;;;;;21.08;17.60;;;8.10;99.90;;;;;;5110820;28;20138;-80
2022/03/18 00:54:39;;;;;;;20.92;17.90;;;8.00;99.90;;;;;;5094708;28;20015;-78
2022/03/18 00:57:06;;;;;;;25.27;17.35;;;8.00;99.90;;;;;;5112544;28;20036;-78
2022/03/18 00:59:32;;;;;;;21.88;17.55;;;7.90;99.90;;;;;;5097480;28;20020;-78
2022/03/18 01:01:58;;;;;;;18.77;16.75;;;7.90;99.90;;;;;;5098707;28;20031;-79
2022/03/18 01:04:25;;;;;;;19.90;17.08;;;8.00;99.90;;;;;;5115285;28;20103;-78
2022/03/18 01:06:52;;;;;;;22.95;18.23;;;7.90;99.90;;;;;;5086402;28;20031;-77
2022/03/18 01:09:19;;;;;;;19.35;16.70;;;7.90;99.90;;;;;;5094136;28;20055;-80
2022/03/18 01:11:46;;;;;;;22.92;17.30;;;7.90;99.90;;;;;;5112687;28;20031;-79
2022/03/18 01:14:11;;;;;;;19.30;16.85;;;8.00;99.90;;;;;;5113137;28;20571;-79
2022/03/18 01:16:37;;;;;;;18.98;16.98;;;8.00;99.90;;;;;;5116538;28;20031;-77
2022/03/18 01:19:03;;;;;;;21.42;17.30;;;7.90;99.90;;;;;;5112943;28;20039;-80
2022/03/18 01:21:28;;;;;;;18.45;16.48;;;7.90;99.90;;;;;;5120801;28;20032;-82
2022/03/18 01:23:54;;;;;;;18.73;15.70;;;7.90;99.90;;;;;;5104597;28;20055;-79
2022/03/18 01:26:19;;;;;;;17.30;14.98;;;7.90;99.90;;;;;;5102782;28;20476;-79
2022/03/18 01:28:45;;;;;;;18.13;16.20;;;7.90;99.90;;;;;;5116034;28;20028;-78
2022/03/18 01:31:10;;;;;;;16.83;14.90;;;7.90;99.90;;;;;;5103930;28;20056;-79
2022/03/18 01:33:37;;;;;;;20.33;16.40;;;8.00;99.90;;;;;;5088759;28;20419;-79
2022/03/18 01:36:04;;;;;;;16.83;15.15;;;8.10;99.90;;;;;;5109820;28;20028;-78
2022/03/18 01:38:29;;;;;;;19.33;16.25;;;7.90;99.90;;;;;;5111313;28;20124;-79
2022/03/18 01:40:55;;;;;;;16.95;15.23;;;7.90;99.90;;;;;;5088778;28;20103;-80
2022/03/18 01:43:21;;;;;;;17.55;14.73;;;7.90;99.90;;;;;;5107380;28;20028;-80
2022/03/18 01:45:46;;;;;;;17.23;14.98;;;7.90;99.90;;;;;;5112260;28;20109;-80
2022/03/18 01:48:13;;;;;;;17.10;14.85;;;7.80;99.90;;;;;;5093180;28;20020;-80
2022/03/18 01:50:40;;;;;;;18.42;15.15;;;8.00;99.90;;;;;;5108483;28;20035;-80
2022/03/18 01:53:07;;;;;;;18.10;15.30;;;7.90;99.90;;;;;;5112601;28;20023;-80
2022/03/18 01:55:33;;;;;;;18.85;14.55;;;7.90;99.90;;;;;;5116240;28;20030;-80
2022/03/18 01:57:59;;;;;;;16.80;13.88;;;8.00;99.90;;;;;;5118829;28;20027;-80
2022/03/18 02:00:25;;;;;;;17.92;15.65;;;8.00;99.90;;;;;;5110910;28;20494;-80
2022/03/18 02:02:52;;;;;;;14.77;13.23;;;8.00;99.90;;;;;;5114212;28;20030;-80
2022/03/18 02:05:18;;;;;;;17.50;13.45;;;8.00;99.90;;;;;;5102217;28;20399;-81
2022/03/18 02:07:46;;;;;;;20.05;14.88;;;7.90;99.90;;;;;;5104755;28;20076;-81
2022/03/18 02:10:13;;;;;;;16.33;14.30;;;7.90;99.90;;;;;;5101552;28;20080;-80
2022/03/18 02:12:39;;;;;;;18.52;13.45;;;7.90;99.90;;;;;;5098936;28;20023;-81
2022/03/18 02:15:05;;;;;;;18.92;14.25;;;7.90;99.90;;;;;;5101211;28;20028;-80
2022/03/18 02:17:31;;;;;;;15.90;14.25;;;7.90;99.90;;;;;;5091228;28;20054;-81
2022/03/18 02:19:57;;;;;;;15.63;13.93;;;7.90;99.90;;;;;;5101714;28;20036;-80
2022/03/18 02:22:25;;;;;;;17.17;15.38;;;7.80;99.90;;;;;;5114364;28;20438;-80
2022/03/18 02:24:52;;;;;;;21.85;15.40;;;7.80;99.90;;;;;;5120453;28;20020;-80
2022/03/18 02:27:19;;;;;;;19.50;15.40;;;7.80;99.90;;;;;;5122668;28;20012;-80
2022/03/18 02:29:45;;;;;;;19.25;14.50;;;7.80;99.90;;;;;;5102377;28;20123;-81
2022/03/18 02:32:13;;;;;;;18.60;16.50;;;7.90;99.90;;;;;;5118429;28;20028;-80
2022/03/18 02:34:40;;;;;;;17.65;15.40;;;7.80;99.90;;;;;;5100766;28;20051;-81
2022/03/18 02:37:06;;;;;;;17.88;14.50;;;7.90;99.90;;;;;;5098150;28;20119;-80
2022/03/18 02:39:32;;;;;;;16.05;14.43;;;7.90;99.90;;;;;;5097935;28;20059;-80
2022/03/18 02:41:58;;;;;;;17.08;15.27;;;7.80;99.90;;;;;;5120395;28;20020;-80
2022/03/18 02:44:24;;;;;;;17.42;14.73;;;7.80;99.90;;;;;;5100354;28;20492;-81
2022/03/18 02:46:49;;;;;;;14.80;13.30;;;7.80;99.90;;;;;;5081977;28;20021;-80
2022/03/18 02:49:15;;;;;;;16.50;13.90;;;7.70;99.90;;;;;;5113298;28;20026;-80
2022/03/18 02:51:41;;;;;;;16.35;13.75;;;7.80;99.90;;;;;;5112715;28;20012;-80
2022/03/18 02:54:08;;;;;;;14.32;12.88;;;7.70;99.90;;;;;;5099249;28;20024;-81
2022/03/18 02:56:34;;;;;;;17.80;15.45;;;7.70;99.90;;;;;;5119566;28;20015;-80
2022/03/18 02:59:01;;;;;;;17.13;15.30;;;7.70;99.90;;;;;;5094047;28;20035;-80
2022/03/18 03:01:27;;;;;;;16.35;14.45;;;7.80;99.90;;;;;;5094080;28;20050;-81
2022/03/18 03:03:54;;;;;;;15.43;13.82;;;7.80;99.90;;;;;;5118038;28;20015;-80
2022/03/18 03:09:04;;;;;;;15.68;13.32;;;7.80;99.90;;;;;;5113769;28;20034;-80
2022/03/18 03:11:29;;;;;;;17.25;13.43;;;7.70;99.90;;;;;;5132492;28;20039;-81
2022/03/18 03:13:55;;;;;;;14.93;13.32;;;7.70;99.90;;;;;;5115813;28;20112;-82
2022/03/18 03:16:21;;;;;;;18.30;13.32;;;7.70;99.90;;;;;;5120068;28;20034;-82
2022/03/18 03:18:47;;;;;;;16.50;13.82;;;8.00;99.90;;;;;;5113868;28;20096;-80
2022/03/18 03:21:13;;;;;;;15.90;13.77;;;8.00;99.90;;;;;;5094755;28;20031;-80
2022/03/18 03:23:39;;;;;;;15.02;13.32;;;7.90;99.90;;;;;;5100589;28;20025;-81
2022/03/18 03:26:05;;;;;;;15.70;13.50;;;8.00;99.90;;;;;;5093477;28;20106;-80
2022/03/18 03:28:30;;;;;;;15.18;13.57;;;7.90;99.90;;;;;;5111608;28;20039;-80
2022/03/18 03:30:56;;;;;;;16.35;13.77;;;8.00;99.90;;;;;;5100137;28;20026;-79
2022/03/18 03:33:21;;;;;;;15.75;13.48;;;8.10;99.90;;;;;;5111068;28;20512;-79
2022/03/18 03:35:47;;;;;;;14.65;12.30;;;7.90;99.90;;;;;;5095179;28;20392;-81
2022/03/18 03:38:15;;;;;;;15.30;12.70;;;7.80;99.90;;;;;;5118313;28;20027;-79
2022/03/18 03:40:43;;;;;;;15.85;14.05;;;7.70;99.90;;;;;;5102623;28;20035;-79
2022/03/18 03:43:09;;;;;;;14.68;13.13;;;7.70;99.90;;;;;;5118796;28;20020;-80
2022/03/18 03:45:38;;;;;;;16.80;13.77;;;7.70;99.90;;;;;;5110151;28;20041;-80
2022/03/18 03:48:05;;;;;;;18.85;14.50;;;7.70;99.90;;;;;;5117552;28;20079;-81
2022/03/18 03:50:31;;;;;;;13.55;12.23;;;7.70;99.90;;;;;;5092527;28;20022;-80
2022/03/18 03:52:57;;;;;;;15.70;14.10;;;7.70;99.90;;;;;;5114441;28;20404;-81
2022/03/18 03:55:24;;;;;;;15.85;13.35;;;7.80;99.90;;;;;;5100734;28;20115;-80
2022/03/18 03:57:49;;;;;;;17.08;14.38;;;7.70;99.90;;;;;;5101674;28;20023;-80
2022/03/18 04:00:16;;;;;;;17.48;14.32;;;7.70;99.90;;;;;;5115080;28;20024;-80
2022/03/18 04:02:43;;;;;;;16.30;14.02;;;7.70;99.90;;;;;;5095029;28;20023;-81
2022/03/18 04:05:10;;;;;;;17.58;14.50;;;7.60;99.90;;;;;;5095740;28;20023;-81
2022/03/18 04:07:39;;;;;;;23.30;15.95;;;7.60;99.90;;;;;;5120560;28;20045;-81
2022/03/18 04:10:07;;;;;;;16.88;14.75;;;7.60;99.90;;;;;;5092952;28;20016;-81
2022/03/18 04:12:33;;;;;;;16.95;14.88;;;7.60;99.90;;;;;;5086296;28;20107;-81
2022/03/18 04:15:03;;;;;;;16.92;14.07;;;7.70;99.90;;;;;;5100183;28;20027;-80
2022/03/18 04:17:44;;;;;;;18.58;14.60;;;7.70;99.90;;;;;;5097129;28;20045;-80
2022/03/18 04:20:13;;;;;;;16.33;14.43;;;7.70;99.90;;;;;;5101995;28;20035;-81
2022/03/18 04:22:39;;;;;;;18.13;14.07;;;7.80;99.90;;;;;;5118017;28;20107;-80
2022/03/18 04:25:05;;;;;;;16.65;13.70;;;7.70;99.90;;;;;;5099425;28;20020;-80
2022/03/18 04:27:32;;;;;;;15.43;13.15;;;7.60;99.90;;;;;;5096446;28;20073;-80
2022/03/18 04:29:58;;;;;;;16.75;13.80;;;7.60;99.90;;;;;;5115516;28;20039;-80
2022/03/18 04:32:23;;;;;;;15.82;13.30;;;7.70;99.90;;;;;;5091298;28;20016;-80
2022/03/18 04:34:49;;;;;;;18.70;13.27;;;7.70;99.90;;;;;;5092594;28;20028;-80
2022/03/18 04:37:14;;;;;;;15.80;12.10;;;7.60;99.90;;;;;;5098143;28;20119;-80
2022/03/18 04:39:40;;;;;;;16.45;13.52;;;7.60;99.90;;;;;;5115741;28;20031;-81
2022/03/18 04:42:06;;;;;;;16.10;13.57;;;7.60;99.90;;;;;;5097659;28;20053;-80
2022/03/18 04:44:31;;;;;;;18.17;14.60;;;7.50;99.90;;;;;;5112365;28;20543;-81
2022/03/18 04:46:57;;;;;;;20.40;13.73;;;7.50;99.90;;;;;;5092989;28;20048;-81
2022/03/18 04:49:22;;;;;;;19.58;14.27;;;7.60;99.90;;;;;;5096924;28;20012;-81
2022/03/18 04:51:48;;;;;;;17.42;14.65;;;7.50;99.90;;;;;;5101029;28;20087;-81
2022/03/18 04:54:13;;;;;;;20.90;14.57;;;7.50;99.90;;;;;;5117668;28;20046;-80
2022/03/18 04:59:23;;;;;;;17.27;15.32;;;7.50;99.90;;;;;;5112840;28;20027;-80
2022/03/18 05:01:49;;;;;;;19.77;14.68;;;7.50;99.90;;;;;;5118225;28;20023;-80
2022/03/18 05:04:14;;;;;;;16.65;14.63;;;7.50;99.90;;;;;;5110868;28;20020;-80
2022/03/18 05:06:40;;;;;;;19.98;14.88;;;7.50;99.90;;;;;;5115834;28;20020;-82
2022/03/18 05:09:06;;;;;;;20.42;16.27;;;7.50;99.90;;;;;;5117407;28;20016;-81
2022/03/18 05:11:31;;;;;;;16.75;14.75;;;7.50;99.90;;;;;;5090149;28;20019;-81
2022/03/18 05:14:00;;;;;;;22.83;15.68;;;7.50;99.90;;;;;;5114721;28;20024;-81
2022/03/18 05:16:25;;;;;;;18.95;14.70;;;7.80;99.90;;;;;;5098423;28;21487;-81
2022/03/18 05:18:52;;;;;;;21.27;17.00;;;7.70;99.90;;;;;;5092080;28;20054;-81
2022/03/18 05:21:17;;;;;;;16.40;14.63;;;7.60;99.90;;;;;;5087455;28;20059;-80
2022/03/18 05:23:43;;;;;;;21.48;15.70;;;7.70;99.90;;;;;;5091549;28;20023;-81
2022/03/18 05:26:09;;;;;;;17.05;15.02;;;7.60;99.90;;;;;;5115275;28;20083;-80
2022/03/18 05:28:36;;;;;;;19.25;14.70;;;7.60;99.90;;;;;;5092237;28;20467;-81
2022/03/18 05:31:01;;;;;;;18.50;13.90;;;7.60;99.90;;;;;;5115815;28;20016;-80
2022/03/18 05:33:27;;;;;;;19.50;14.70;;;7.60;99.90;;;;;;5095945;28;20034;-81
2022/03/18 05:35:52;;;;;;;18.23;14.27;;;7.80;99.90;;;;;;5098014;28;20027;-80
2022/03/18 05:38:18;;;;;;;17.65;14.70;;;7.90;99.90;;;;;;5091848;28;20031;-80
2022/03/18 05:40:44;;;;;;;21.05;15.20;;;7.90;99.90;;;;;;5098788;28;20115;-80
2022/03/18 05:43:09;;;;;;;18.55;14.88;;;7.80;99.90;;;;;;5091739;28;20028;-82
2022/03/18 05:45:35;;;;;;;20.63;16.35;;;7.70;99.90;;;;;;5092029;28;20027;-83
2022/03/18 05:48:00;;;;;;;23.27;16.83;;;7.70;99.90;;;;;;5094585;28;20016;-81
2022/03/18 05:50:26;;;;;;;20.83;16.27;;;7.70;99.90;;;;;;5092485;28;20089;-81
2022/03/18 05:52:52;;;;;;;22.48;15.57;;;7.80;99.90;;;;;;5089082;28;20059;-81
2022/03/18 05:55:18;;;;;;;24.02;16.27;;;7.80;99.90;;;;;;5117184;28;20024;-81
2022/03/18 05:57:43;;;;;;;22.48;16.27;;;7.70;99.90;;;;;;5095903;28;20024;-81
2022/03/18 06:00:10;;;;;;;23.70;16.25;;;7.80;99.90;;;;;;5096220;28;20452;-81
2022/03/18 06:02:36;;;;;;;23.05;16.70;;;7.90;99.90;;;;;;5113905;28;20019;-80
2022/03/18 06:05:02;;;;;;;23.65;16.95;;;7.90;99.90;;;;;;5091108;28;20020;-80
2022/03/18 06:07:28;;;;;;;21.02;16.92;;;7.90;99.90;;;;;;5108470;28;20020;-79
2022/03/18 06:12:38;;;;;;;20.15;15.07;;;7.90;99.90;;;;;;5100029;28;20034;-80
2022/03/18 06:15:04;;;;;;;20.92;16.85;;;7.80;99.90;;;;;;5095153;28;20036;-80
2022/03/18 06:17:29;;;;;;;23.25;18.52;;;7.70;99.90;;;;;;5116569;28;20480;-80
2022/03/18 06:19:55;;;;;;;22.90;17.52;;;7.70;99.90;;;;;;5111288;28;20390;-80
2022/03/18 06:22:21;;;;;;;19.83;15.15;;;7.60;99.90;;;;;;5098236;28;20020;-81
2022/03/18 06:24:46;;;;;;;22.73;16.67;;;7.60;99.90;;;;;;5093043;28;20032;-80
2022/03/18 06:27:12;;;;;;;19.33;16.27;;;7.60;99.90;;;;;;5089258;28;20096;-82
2022/03/18 06:29:39;;;;;;;23.98;17.45;;;7.60;99.90;;;;;;5099336;28;20464;-82
2022/03/18 06:32:05;;;;;;;21.73;16.52;;;7.80;99.90;;;;;;5116793;28;20058;-81
2022/03/18 06:34:31;;;;;;;25.55;17.77;;;7.80;99.90;;;;;;5113337;28;20043;-81
2022/03/18 06:36:57;;;;;;;24.33;16.88;;;7.70;99.90;;;;;;5087676;28;20016;-81
2022/03/18 06:39:24;;;;;;;22.20;17.90;;;8.00;99.90;;;;;;5116450;28;20046;-79
2022/03/18 06:41:50;;;;;;;20.13;17.08;;;8.20;99.90;;;;;;5099572;28;20039;-81
2022/03/18 06:44:16;;;;;;;23.35;17.92;;;8.00;99.90;;;;;;5098567;28;20073;-81
2022/03/18 06:46:41;;;;;;;27.15;18.75;;;7.90;99.90;;;;;;5110276;28;20024;-81
2022/03/18 06:49:07;;;;;;;26.45;18.90;;;8.10;99.90;;;;;;5108216;28;20020;-79
2022/03/18 06:51:33;;;;;;;25.85;19.67;;;8.20;99.90;;;;;;5132735;28;20103;-80
2022/03/18 06:53:59;;;;;;;27.65;19.58;;;8.00;99.90;;;;;;5101015;28;20028;-79
2022/03/18 06:56:27;;;;;;;25.23;19.20;;;8.10;99.90;;;;;;5099299;28;20016;-80
2022/03/18 06:58:53;;;;;;;27.73;19.67;;;8.30;99.90;;;;;;5105066;28;20130;-80
2022/03/18 07:01:19;;;;;;;25.00;19.55;;;8.40;99.90;;;;;;5108136;28;20560;-81
2022/03/18 07:03:45;;;;;;;29.23;19.80;;;8.40;99.90;;;;;;5102960;28;20091;-80
2022/03/18 07:06:11;;;;;;;27.00;19.33;;;8.40;99.90;;;;;;5119747;28;20055;-80
2022/03/18 07:08:36;;;;;;;26.25;18.58;;;8.40;99.90;;;;;;5120242;28;20027;-81
2022/03/18 07:11:03;;;;;;;26.15;19.48;;;8.40;99.90;;;;;;5118808;28;20038;-81
2022/03/18 07:13:28;;;;;;;29.00;20.88;;;8.30;99.90;;;;;;5117460;28;20080;-80
2022/03/18 07:15:54;;;;;;;32.03;21.13;;;8.40;99.90;;;;;;5098428;28;20024;-80
2022/03/18 07:18:20;;;;;;;31.30;21.50;;;8.50;99.90;;;;;;5099477;28;20031;-82
2022/03/18 07:20:45;;;;;;;29.08;20.63;;;8.60;99.90;;;;;;5098940;28;20027;-81
2022/03/18 07:23:16;;;;;;;33.25;22.17;;;8.60;99.90;;;;;;5118804;28;20020;-82
2022/03/18 07:25:43;;;;;;;30.40;18.85;;;8.70;99.90;;;;;;5118641;28;20012;-79
2022/03/18 07:28:11;;;;;;;28.67;21.00;;;8.70;99.90;;;;;;5114374;28;20069;-81
2022/03/18 07:30:38;;;;;;;33.13;23.40;;;8.60;99.90;;;;;;5097290;28;20077;-81
2022/03/18 07:33:04;;;;;;;34.53;23.83;;;8.70;99.90;;;;;;5094867;28;20019;-80
2022/03/18 07:35:30;;;;;;;31.90;23.73;;;8.50;99.90;;;;;;5098885;28;20051;-81
2022/03/18 07:37:56;;;;;;;32.72;23.02;;;8.60;99.90;;;;;;5118168;28;20107;-82
2022/03/18 07:40:22;;;;;;;30.92;22.05;;;8.70;99.90;;;;;;5122433;28;20020;-81
2022/03/18 07:42:56;;;;;;;35.70;22.70;;;8.90;99.90;;;;;;5103919;28;20108;-81
2022/03/18 07:45:26;;;;;;;33.67;23.77;;;8.90;99.90;;;;;;5114266;28;20031;-82
2022/03/18 07:47:54;;;;;;;36.67;24.40;;;8.90;99.90;;;;;;5112337;28;20073;-82
2022/03/18 07:50:21;;;;;;;32.03;24.13;;;9.10;99.90;;;;;;5097572;28;20031;-82
2022/03/18 07:52:53;;;;;;;36.80;25.77;;;9.10;99.90;;;;;;5100332;28;20019;-81
2022/03/18 07:55:20;;;;;;;42.70;26.05;;;9.20;99.90;;;;;;5093002;28;20028;-82
2022/03/18 07:57:46;;;;;;;34.60;25.02;;;9.20;99.90;;;;;;5094900;28;20467;-81
2022/03/18 08:00:13;;;;;;;39.25;27.38;;;9.30;99.90;;;;;;5112250;28;20028;-80
2022/03/18 08:02:40;;;;;;;34.63;25.70;;;9.40;99.90;;;;;;5130143;27;20028;-82
2022/03/18 08:05:06;;;;;;;35.17;25.30;;;9.40;99.90;;;;;;5107804;28;20040;-81
2022/03/18 08:07:33;;;;;;;36.20;25.35;;;9.40;99.90;;;;;;5118973;28;20024;-81
2022/03/18 08:09:59;;;;;;;35.58;24.77;;;9.30;99.90;;;;;;5106909;28;20036;-79
2022/03/18 08:12:24;;;;;;;31.00;25.23;;;9.40;99.90;;;;;;5116917;28;20383;-80
2022/03/18 08:14:50;;;;;;;36.20;24.38;;;9.40;99.90;;;;;;5097336;28;20023;-81
2022/03/18 08:17:16;;;;;;;40.88;26.45;;;9.30;99.90;;;;;;5117540;28;20081;-81
2022/03/18 08:19:41;;;;;;;36.40;26.23;;;9.30;99.90;;;;;;5099478;28;20062;-80
2022/03/18 08:22:07;;;;;;;37.70;26.40;;;9.40;99.90;;;;;;5097232;28;20032;-80
2022/03/18 08:24:33;;;;;;;36.17;25.80;;;9.50;99.90;;;;;;5119084;28;20020;-80
2022/03/18 08:26:58;;;;;;;35.15;25.67;;;9.60;99.90;;;;;;5095678;28;20065;-81
2022/03/18 08:29:24;;;;;;;42.25;25.63;;;9.60;99.90;;;;;;5116757;28;20047;-79
2022/03/18 08:31:50;;;;;;;38.45;25.13;;;9.70;99.90;;;;;;5121860;28;20039;-81
2022/03/18 08:34:15;;;;;;;39.55;26.52;;;9.90;99.90;;;;;;5136102;28;20016;-81
2022/03/18 08:36:41;;;;;;;34.25;24.50;;;10.00;99.90;;;;;;5128259;28;20023;-80
2022/03/18 08:39:07;;;;;;;36.13;26.10;;;10.00;99.90;;;;;;5113279;28;20027;-80
2022/03/18 08:41:32;;;;;;;36.70;25.50;;;10.10;99.90;;;;;;5130774;27;20035;-81
2022/03/18 08:43:58;;;;;;;35.88;24.92;;;10.20;99.90;;;;;;5093194;28;20483;-80
2022/03/18 08:46:24;;;;;;;31.35;25.02;;;10.30;99.90;;;;;;5101185;28;20503;-80
2022/03/18 08:48:49;;;;;;;31.70;23.25;;;10.40;99.90;;;;;;5102711;28;20095;-80
2022/03/18 08:51:16;;;;;;;31.10;23.88;;;10.40;99.90;;;;;;5093749;28;20020;-80
2022/03/18 08:53:42;;;;;;;32.25;23.73;;;10.30;99.90;;;;;;5104345;28;20433;-81
2022/03/18 08:56:08;;;;;;;32.45;23.75;;;10.30;99.90;;;;;;5116568;28;20028;-81
2022/03/18 08:58:33;;;;;;;29.20;22.55;;;10.40;99.90;;;;;;5101904;28;20045;-81
2022/03/18 09:00:59;;;;;;;32.85;21.88;;;10.40;99.90;;;;;;5126673;27;20040;-79
2022/03/18 09:03:24;;;;;;;31.67;22.75;;;10.20;99.90;;;;;;5094053;28;20023;-79
2022/03/18 09:05:50;;;;;;;31.10;23.23;;;10.20;99.90;;;;;;5116312;28;20043;-80
2022/03/18 09:08:16;;;;;;;26.77;19.73;;;10.30;99.90;;;;;;5097819;28;20015;-80
2022/03/18 09:10:41;;;;;;;30.30;21.35;;;10.30;99.90;;;;;;5100024;28;20016;-80
2022/03/18 09:13:07;;;;;;;29.08;21.77;;;10.20;99.90;;;;;;5095785;28;20024;-78
2022/03/18 09:15:33;;;;;;;27.27;21.48;;;10.20;99.90;;;;;;5098552;28;20035;-79
2022/03/18 09:17:59;;;;;;;32.03;20.58;;;10.10;99.90;;;;;;5115551;28;20045;-80
2022/03/18 09:20:25;;;;;;;30.02;19.98;;;10.10;99.90;;;;;;5097773;28;20482;-79
2022/03/18 09:22:50;;;;;;;31.73;22.52;;;10.30;99.90;;;;;;5092415;28;20020;-80
2022/03/18 09:25:16;;;;;;;41.88;22.13;;;10.40;99.90;;;;;;5103632;28;20095;-80
2022/03/18 09:27:42;;;;;;;25.77;19.50;;;10.40;99.90;;;;;;5093293;28;20030;-81
2022/03/18 09:30:09;;;;;;;28.73;19.75;;;10.50;99.90;;;;;;5112375;28;20598;-80
2022/03/18 09:32:35;;;;;;;26.83;18.67;;;10.50;99.90;;;;;;5129457;27;20093;-79
2022/03/18 09:35:02;;;;;;;27.77;19.27;;;10.40;99.90;;;;;;5129513;27;20027;-80
2022/03/18 09:37:27;;;;;;;28.80;20.17;;;10.40;99.90;;;;;;5114080;28;20012;-80
2022/03/18 09:39:53;;;;;;;28.70;20.00;;;10.30;99.90;;;;;;5118871;27;20004;-79
2022/03/18 09:42:19;;;;;;;27.20;20.17;;;10.30;99.90;;;;;;5136834;27;20057;-80
2022/03/18 09:44:46;;;;;;;27.83;20.30;;;10.40;99.90;;;;;;5133393;27;20050;-81
2022/03/18 09:47:12;;;;;;;28.90;21.08;;;10.50;99.90;;;;;;5103875;28;20031;-80
2022/03/18 09:49:37;;;;;;;27.05;19.10;;;10.60;99.90;;;;;;5116388;28;20023;-80
2022/03/18 09:52:04;;;;;;;25.25;19.88;;;10.50;99.90;;;;;;5114049;28;20058;-80
2022/03/18 09:54:32;;;;;;;31.42;19.67;;;10.50;99.90;;;;;;5106221;28;20081;-79
2022/03/18 09:56:59;;;;;;;30.15;20.75;;;10.50;99.90;;;;;;5116951;28;20011;-80
2022/03/18 09:59:27;;;;;;;27.40;21.40;;;10.80;99.90;;;;;;5134217;27;20019;-79
2022/03/18 10:02:22;;;;;;;28.02;20.20;;;10.80;99.90;;;;;;5130427;28;20031;-82
2022/03/18 10:04:52;;;;;;;32.53;22.70;;;10.80;99.90;;;;;;5131824;27;20031;-80
2022/03/18 10:07:18;;;;;;;31.02;21.00;;;10.90;99.90;;;;;;5135930;27;20020;-82
2022/03/18 10:09:43;;;;;;;30.25;20.60;;;11.00;99.90;;;;;;5135602;27;20019;-81
2022/03/18 10:12:34;;;;;;;30.90;21.52;;;11.00;99.90;;;;;;5122323;27;20028;-82
2022/03/18 10:15:09;;;;;;;38.45;21.63;;;11.00;99.90;;;;;;5095206;28;20114;-81
2022/03/18 10:17:42;;;;;;;29.85;21.35;;;11.00;99.90;;;;;;5110842;28;20035;-81
2022/03/18 10:20:23;;;;;;;30.42;20.77;;;11.10;99.90;;;;;;5095548;28;20031;-82
2022/03/18 10:22:50;;;;;;;27.23;19.95;;;11.10;99.90;;;;;;5097999;28;20139;-82
2022/03/18 10:25:53;;;;;;;28.80;20.30;;;11.10;99.90;;;;;;5095840;28;20025;-82
2022/03/18 10:28:46;;;;;;;29.08;20.83;;;11.10;99.90;;;;;;5092483;28;20042;-82
2022/03/18 10:31:18;;;;;;;32.30;21.05;;;11.10;99.90;;;;;;5098957;28;20030;-82
2022/03/18 10:39:32;;;;;;;31.70;22.98;;;11.30;99.90;;;;;;5120680;28;20497;-80
2022/03/18 10:42:02;;;;;;;32.33;21.95;;;11.40;99.90;;;;;;5109591;28;20059;-81
2022/03/18 10:44:41;;;;;;;32.08;23.33;;;11.20;99.90;;;;;;5097575;28;20399;-81
2022/03/18 10:47:06;;;;;;;31.13;22.42;;;11.10;99.90;;;;;;5110944;28;20030;-81
2022/03/18 10:49:32;;;;;;;29.42;22.10;;;11.10;99.90;;;;;;5098284;28;20024;-81
2022/03/18 10:52:10;;;;;;;25.58;19.70;;;11.20;99.90;;;;;;5102731;28;20434;-82
2022/03/18 10:54:35;;;;;;;30.35;21.77;;;11.20;99.90;;;;;;5100672;28;20441;-81
2022/03/18 10:57:02;;;;;;;35.88;23.63;;;10.90;99.90;;;;;;5113687;28;20015;-81
2022/03/18 10:59:27;;;;;;;29.15;22.25;;;11.00;99.90;;;;;;5096686;28;20114;-81
2022/03/18 11:01:56;;;;;;;28.92;23.17;;;11.40;99.90;;;;;;5090164;28;20142;-81
2022/03/18 11:04:23;;;;;;;31.00;21.52;;;11.30;99.90;;;;;;5111752;28;20028;-81
2022/03/18 11:07:29;;;;;;;30.05;21.38;;;11.30;99.90;;;;;;5092700;28;20176;-81
2022/03/18 11:12:44;;;;;;;34.15;22.10;;;11.40;99.90;;;;;;5114428;28;20526;-82
2022/03/18 11:15:10;;;;;;;30.00;22.85;;;11.40;99.90;;;;;;5101201;28;20031;-82
2022/03/18 11:17:39;;;;;;;33.83;24.33;;;11.40;99.90;;;;;;5100114;28;20024;-81
2022/03/18 11:20:06;;;;;;;32.40;22.73;;;11.40;99.90;;;;;;5116730;28;20095;-83
2022/03/18 11:22:34;;;;;;;29.92;23.23;;;11.30;99.90;;;;;;5122354;28;20084;-82
2022/03/18 11:25:01;;;;;;;30.20;23.30;;;11.30;99.90;;;;;;5113674;28;20035;-79
2022/03/18 11:27:27;;;;;;;29.30;21.83;;;11.30;99.90;;;;;;5102000;28;20027;-80
2022/03/18 11:30:19;;;;;;;33.35;22.95;;;11.30;99.90;;;;;;5106012;28;20032;-80
2022/03/18 11:33:04;;;;;;;29.63;22.08;;;11.20;99.90;;;;;;5106948;28;20032;-82
2022/03/18 11:35:50;;;;;;;28.65;22.45;;;11.00;99.90;;;;;;5131489;27;20019;-83
2022/03/18 11:38:30;;;;;;;33.08;23.02;;;11.00;99.90;;;;;;5105532;28;20027;-84
2022/03/18 11:40:57;;;;;;;31.17;23.98;;;11.00;99.90;;;;;;5117606;28;20266;-82
2022/03/18 11:43:41;;;;;;;30.13;23.50;;;11.20;99.90;;;;;;5114288;28;20059;-82
2022/03/18 11:46:13;;;;;;;32.38;23.83;;;11.10;99.90;;;;;;5100318;28;20050;-83
2022/03/18 11:48:55;;;;;;;29.42;22.67;;;11.20;99.90;;;;;;5102341;28;20015;-82
2022/03/18 11:51:40;;;;;;;32.90;22.67;;;11.20;99.90;;;;;;5118014;28;20016;-82
2022/03/18 11:54:19;;;;;;;32.63;23.60;;;11.60;99.90;;;;;;5099079;28;20050;-83
2022/03/18 11:56:46;;;;;;;35.83;23.17;;;11.80;99.90;;;;;;5096148;28;20081;-83
2022/03/18 11:59:23;;;;;;;32.05;22.80;;;11.80;99.90;;;;;;5120509;28;20102;-82
2022/03/18 12:01:53;;;;;;;33.13;22.55;;;11.90;99.90;;;;;;5118179;28;20110;-83
2022/03/18 12:04:52;;;;;;;28.52;22.38;;;11.90;99.90;;;;;;5115942;28;20068;-83
2022/03/18 12:07:30;;;;;;;28.05;21.92;;;12.10;99.90;;;;;;5113336;28;20031;-82
2022/03/18 12:10:00;;;;;;;31.27;22.98;;;12.20;99.90;;;;;;5093842;28;20422;-84
2022/03/18 12:12:44;;;;;;;30.70;23.70;;;12.10;99.90;;;;;;5097581;28;20027;-83
2022/03/18 12:15:12;;;;;;;31.88;23.23;;;11.90;99.90;;;;;;5091906;28;20027;-83
2022/03/18 12:17:51;;;;;;;31.50;23.92;;;11.90;99.90;;;;;;5092757;28;20015;-82
2022/03/18 12:20:22;;;;;;;29.35;21.88;;;12.00;99.90;;;;;;5115037;28;20055;-83
2022/03/18 12:22:52;;;;;;;33.17;24.95;;;12.10;99.90;;;;;;5090892;28;20031;-81
2022/03/18 12:25:20;;;;;;;32.33;24.65;;;12.10;99.90;;;;;;5092318;28;20023;-81
2022/03/18 12:27:46;;;;;;;30.98;22.75;;;12.10;99.90;;;;;;5097053;28;20027;-81
2022/03/18 12:30:14;;;;;;;32.22;25.13;;;12.10;99.90;;;;;;5116228;28;20045;-83
2022/03/18 12:33:01;;;;;;;26.95;23.23;;;12.20;99.90;;;;;;5121882;28;20034;-82
2022/03/18 12:35:33;;;;;;;32.15;24.92;;;12.30;99.90;;;;;;5093868;28;20026;-81
2022/03/18 12:38:06;;;;;;;30.27;22.55;;;12.30;99.90;;;;;;5126551;28;20028;-82
2022/03/18 12:40:33;;;;;;;32.90;24.77;;;12.40;99.90;;;;;;5105836;28;20026;-81
2022/03/18 12:43:02;;;;;;;30.17;23.13;;;12.40;99.90;;;;;;5112733;28;20100;-81
2022/03/18 12:45:30;;;;;;;31.27;24.48;;;12.40;99.90;;;;;;5128175;28;20045;-82
2022/03/18 12:47:58;;;;;;;32.33;24.27;;;12.30;99.90;;;;;;5106475;28;20028;-82
2022/03/18 12:50:25;;;;;;;34.00;24.45;;;12.50;99.90;;;;;;5107704;28;20016;-82
2022/03/18 12:52:51;;;;;;;29.23;22.85;;;12.60;99.90;;;;;;5105276;28;20027;-82
2022/03/18 12:55:18;;;;;;;28.15;23.27;;;12.50;99.90;;;;;;5102102;28;20050;-82
2022/03/18 12:57:44;;;;;;;28.88;22.27;;;12.50;99.90;;;;;;5107427;28;20118;-81